Aviation Digital Data Service (ADDS)

Output produced by METARs form (2248 UTC 21 May 2022)
found at http://www.aviationweather.gov/metar/data/
 
KABE 212151Z 21014KT 10SM CLR 31/19 A3000 RMK AO2 SLP156 T03110194
KABE 211720Z 2118/2218 23009KT P6SM SCT250 
     FM220000 20006KT P6SM FEW250 
     FM220300 VRB03KT P6SM SCT150 
     FM220600 VRB03KT 5SM BR SCT200 
     FM221200 23005KT P6SM SCT200
       
KPTW 212154Z AUTO 20007KT 10SM CLR 32/19 A3002 RMK AO2 SLP161 T03170194
KMQS 212235Z AUTO VRB04KT 10SM CLR 31/20 A3005 RMK AO2
KMQS 212215Z AUTO VRB06G12KT 10SM CLR 31/20 A3005 RMK AO2
KMQS 212155Z AUTO 19007KT 160V230 10SM CLR 31/20 A3005 RMK AO2
KPHL 212154Z 25010KT 10SM FEW050 SCT250 34/19 A3000 RMK AO2 SLP159 T03390189 $
KPHL 212054Z 2121/2224 24012KT P6SM FEW050 BKN250 
     FM220000 20007KT P6SM FEW250 
     FM221400 23009KT P6SM FEW200 
     FM222100 22011KT P6SM BKN200
       
KILG 212151Z 25010KT 10SM CLR 33/19 A3002 RMK AO2 SLP163 T03280194
KILG 211720Z 2118/2218 18010KT P6SM FEW250 
     FM212200 20007KT P6SM FEW250 
     FM220600 18004KT P6SM FEW250 
     FM221400 22009KT P6SM FEW200
       
KMTN 212154Z 15010KT 10SM CLR 31/18 A3003
KMTN 211722Z 2118/2218 13008KT P6SM FEW060 SCT250 
     FM220400 VRB04KT P6SM FEW060 SCT130 
     FM221600 17008KT P6SM SCT050 SCT130
       
KBWI 212154Z 19007G14KT 10SM SCT080 SCT250 33/18 A3001 RMK AO2 SLP160 T03330178 $
KBWI 212107Z 2121/2224 17008KT P6SM SCT070 SCT250 
     FM220400 20004KT P6SM FEW060 SCT130 
     FM221600 22008G16KT P6SM SCT050 SCT130 
     FM221900 25008G16KT P6SM VCTS BKN050CB BKN130
       
KDCA 212152Z 17009KT 10SM FEW050 BKN250 31/19 A3002 RMK AO2 SLP165 T03060194
KDCA 212107Z 2121/2224 17009KT P6SM FEW060 SCT250 
     FM220300 20004KT P6SM FEW060 SCT130 
     FM221600 21008G16KT P6SM SCT050 SCT130 
     FM221900 25008G16KT P6SM VCTS BKN050CB BKN130
       
KIAD 212152Z 19007KT 10SM FEW060 SCT250 32/19 A3002 RMK AO2 SLP163 T03220194
KIAD 212107Z 2121/2224 17008KT P6SM SCT070 SCT250 
     FM220300 20004KT P6SM FEW060 SCT130 
     FM221600 23008G16KT P6SM SCT050 SCT130 
     FM221900 25008G16KT P6SM VCTS BKN050CB BKN130